Time;durP1;ratioP1;P1;durP2;ratioP2;P2;SDS_P1;SDS_P2;PMS_P1;PMS_P2;Temp;Humidity;BMP_temperature;BMP_pressure;BME280_temperature;BME280_humidity;BME280_pressure;Samples;Min_cycle;Max_cycle;Signal;HPM_P1;HPM_P2
2023/04/10 00:00:23;;;;;;;9.05;7.10;;;;;;;-1.16;100.00;93465.44;2520097;23;20005;-82
2023/04/10 00:01:25;;;;;;;10.75;7.55;;;;;;;-1.18;100.00;93457.91;2520790;23;20002;-86
2023/04/10 00:02:29;;;;;;;10.82;7.10;;;;;;;-1.22;100.00;93459.66;2533244;23;20025;-85
2023/04/10 00:03:32;;;;;;;11.00;7.57;;;;;;;-1.12;100.00;93464.44;2532265;23;20037;-84
2023/04/10 00:04:34;;;;;;;11.07;7.40;;;;;;;-1.22;100.00;93462.28;2521258;23;20030;-84
2023/04/10 00:05:35;;;;;;;9.98;7.65;;;;;;;-1.26;100.00;93461.41;2532279;23;20487;-81
2023/04/10 00:06:36;;;;;;;11.95;7.50;;;;;;;-1.21;100.00;93468.28;2514339;23;20057;-83
2023/04/10 00:07:37;;;;;;;10.80;7.40;;;;;;;-1.22;100.00;93462.28;2532529;23;20005;-83
2023/04/10 00:08:38;;;;;;;10.57;7.57;;;;;;;-1.19;100.00;93458.22;2533030;23;20068;-85
2023/04/10 00:09:39;;;;;;;9.45;7.18;;;;;;;-1.24;100.00;93461.84;2544882;23;20483;-82
2023/04/10 00:10:40;;;;;;;11.27;7.32;;;;;;;-1.24;100.00;93459.22;2520777;23;20013;-85
2023/04/10 00:11:41;;;;;;;11.85;7.25;;;;;;;-1.26;100.00;93461.41;2508949;23;20014;-85
2023/04/10 00:12:42;;;;;;;11.23;7.18;;;;;;;-1.17;100.00;93450.78;2508745;23;20011;-83
2023/04/10 00:13:44;;;;;;;9.88;7.43;;;;;;;-1.23;100.00;93457.34;2520203;23;20009;-84
2023/04/10 00:14:45;;;;;;;8.98;6.43;;;;;;;-1.13;100.00;93459.53;2520242;23;20006;-84
2023/04/10 00:15:47;;;;;;;10.75;7.10;;;;;;;-1.21;100.00;93455.16;2520259;23;20010;-86
2023/04/10 00:16:48;;;;;;;10.40;6.80;;;;;;;-1.24;100.00;93453.22;2509071;23;20007;-85
2023/04/10 00:17:53;;;;;;;10.07;6.93;;;;;;;-1.22;100.00;93448.41;2520833;23;20011;-83
2023/04/10 00:18:54;;;;;;;10.30;7.20;;;;;;;-1.06;100.00;93446.59;2532789;23;20092;-85
2023/04/10 00:19:58;;;;;;;9.65;6.82;;;;;;;-1.04;100.00;93450.41;2520711;23;20010;-83
2023/04/10 00:21:01;;;;;;;11.50;7.70;;;;;;;-1.13;100.00;93449.03;2521270;23;20006;-86
2023/04/10 00:22:04;;;;;;;12.80;7.60;;;;;;;-1.19;100.00;93452.97;2521090;23;20017;-83
2023/04/10 00:23:05;;;;;;;10.15;7.45;;;;;;;-1.25;100.00;93444.59;2510899;23;20010;-85
2023/04/10 00:24:07;;;;;;;10.35;7.20;;;;;;;-1.22;100.00;93443.16;2509608;23;20003;-84
2023/04/10 00:25:09;;;;;;;12.15;8.13;;;;;;;-1.27;100.00;93439.69;2508387;23;20007;-85
2023/04/10 00:26:11;;;;;;;11.90;7.45;;;;;;;-1.24;100.00;93433.00;2508697;23;20011;-85
2023/04/10 00:27:12;;;;;;;12.68;7.13;;;;;;;-1.26;100.00;93440.44;2521006;23;20017;-82
2023/04/10 00:28:14;;;;;;;12.88;7.93;;;;;;;-1.29;100.00;93441.84;2520349;23;20013;-82
2023/04/10 00:29:15;;;;;;;12.88;7.68;;;;;;;-1.33;100.00;93440.22;2532599;23;20080;-85
2023/04/10 00:30:17;;;;;;;12.00;8.15;;;;;;;-1.34;100.00;93442.09;2532084;23;20006;-84
2023/04/10 00:31:18;;;;;;;11.23;7.50;;;;;;;-1.34;100.00;93444.72;2519826;23;20519;-83
2023/04/10 00:32:19;;;;;;;12.55;7.80;;;;;;;-1.35;100.00;93437.19;2520566;23;20070;-85
2023/04/10 00:33:20;;;;;;;10.60;7.38;;;;;;;-1.34;100.00;93443.97;2522100;23;20021;-85
2023/04/10 00:34:21;;;;;;;10.73;7.68;;;;;;;-1.38;100.00;93443.09;2526125;23;19990;-82
2023/04/10 00:35:22;;;;;;;11.45;7.55;;;;;;;-1.29;100.00;93444.47;2511353;23;20460;-84
2023/04/10 00:36:26;;;;;;;11.95;8.05;;;;;;;-1.30;100.00;93447.44;2512444;23;20011;-84
2023/04/10 00:37:27;;;;;;;12.63;7.32;;;;;;;-1.43;100.00;93445.94;2520502;23;20544;-82
2023/04/10 00:38:29;;;;;;;12.38;8.10;;;;;;;-1.44;100.00;93433.94;2531614;23;20002;-81
2023/04/10 00:39:33;;;;;;;11.50;8.07;;;;;;;-1.40;100.00;93430.31;2520505;23;20444;-83
2023/04/10 00:40:36;;;;;;;13.27;8.52;;;;;;;-1.45;100.00;93435.78;2520747;23;20129;-84
2023/04/10 00:41:37;;;;;;;11.68;7.90;;;;;;;-1.42;100.00;93427.25;2519687;23;20380;-82
2023/04/10 00:42:39;;;;;;;11.15;7.43;;;;;;;-1.48;100.00;93430.44;2508315;23;20037;-83
2023/04/10 00:43:43;;;;;;;13.63;8.15;;;;;;;-1.46;100.00;93433.50;2520521;23;20037;-82
2023/04/10 00:44:44;;;;;;;13.18;7.75;;;;;;;-1.44;100.00;93432.06;2508915;23;20013;-85
2023/04/10 00:45:47;;;;;;;11.80;8.30;;;;;;;-1.41;100.00;93428.00;2508624;23;20058;-83
2023/04/10 00:46:48;;;;;;;12.30;7.82;;;;;;;-1.46;100.00;93426.38;2519761;23;20097;-83
2023/04/10 00:47:51;;;;;;;11.88;7.93;;;;;;;-1.44;100.00;93426.06;2508605;23;20029;-82
2023/04/10 00:48:55;;;;;;;11.25;7.65;;;;;;;-1.44;100.00;93437.31;2520442;23;20010;-83
2023/04/10 00:49:56;;;;;;;13.30;7.93;;;;;;;-1.39;100.00;93423.22;2509248;23;20002;-84
2023/04/10 00:50:58;;;;;;;13.95;8.02;;;;;;;-1.42;100.00;93436.97;2508067;23;20093;-84
2023/04/10 00:52:00;;;;;;;13.50;7.18;;;;;;;-1.46;100.00;93430.88;2508337;23;20360;-82
2023/04/10 00:53:02;;;;;;;10.77;7.30;;;;;;;-1.32;100.00;93429.44;2508370;23;20197;-84
2023/04/10 00:54:05;;;;;;;11.55;7.55;;;;;;;-1.31;100.00;93428.31;2520988;23;20017;-82
2023/04/10 00:55:11;;;;;;;12.52;7.38;;;;;;;-1.47;100.00;93435.34;2532539;23;20010;-82
2023/04/10 00:56:14;;;;;;;12.15;7.90;;;;;;;-1.37;100.00;93423.63;2521635;23;20051;-84
2023/04/10 00:57:15;;;;;;;13.48;8.35;;;;;;;-1.40;100.00;93421.69;2520830;23;20016;-81
2023/04/10 00:58:18;;;;;;;10.70;7.43;;;;;;;-1.43;100.00;93425.72;2531291;23;20009;-83
2023/04/10 00:59:20;;;;;;;12.55;7.75;;;;;;;-1.47;100.00;93419.63;2532168;23;20067;-84
2023/04/10 01:00:21;;;;;;;11.77;7.68;;;;;;;-1.53;100.00;93426.22;2519675;23;20085;-85
2023/04/10 01:01:22;;;;;;;11.40;7.45;;;;;;;-1.55;100.00;93423.91;2531909;23;20042;-84
2023/04/10 01:02:24;;;;;;;11.75;7.53;;;;;;;-1.54;100.00;93425.44;2531759;23;20017;-85
2023/04/10 01:03:26;;;;;;;11.98;7.95;;;;;;;-1.52;100.00;93422.47;2519792;23;20010;-84
2023/04/10 01:04:30;;;;;;;13.35;7.93;;;;;;;-1.57;100.00;93423.47;2520168;23;20891;-85
2023/04/10 01:05:36;;;;;;;12.88;7.63;;;;;;;-1.57;100.00;93420.84;2525452;23;20010;-83
2023/04/10 01:06:49;;;;;;;11.88;7.97;;;;;;;-1.58;100.00;93429.03;2533091;23;20056;-83
2023/04/10 01:08:06;;;;;;;13.32;8.10;;;;;;;-1.52;100.00;93430.34;2535644;23;20010;-82
2023/04/10 01:09:28;;;;;;;12.38;8.30;;;;;;;-1.53;100.00;93420.97;2527114;23;20009;-84
2023/04/10 01:11:06;;;;;;;12.63;8.13;;;;;;;-1.51;100.00;93434.50;2517343;23;20007;-84
2023/04/10 01:12:31;;;;;;;10.68;7.40;;;;;;;-1.52;100.00;93422.47;2513821;23;20353;-82
2023/04/10 01:13:47;;;;;;;12.93;8.20;;;;;;;-1.55;100.00;93429.13;2510206;23;20010;-84
2023/04/10 01:15:09;;;;;;;11.80;7.35;;;;;;;-1.65;100.00;93423.59;2513819;23;20094;-84
2023/04/10 01:16:18;;;;;;;11.23;7.30;;;;;;;-1.63;100.00;93426.66;2523896;23;20102;-82
2023/04/10 01:17:35;;;;;;;13.57;8.27;;;;;;;-1.55;100.00;93428.38;2521498;23;20062;-84
2023/04/10 01:18:43;;;;;;;12.85;8.27;;;;;;;-1.57;100.00;93426.09;2527853;23;20018;-85
2023/04/10 01:19:59;;;;;;;11.48;7.90;;;;;;;-1.62;100.00;93428.19;2521193;23;20070;-85
2023/04/10 01:21:04;;;;;;;10.70;7.35;;;;;;;-1.65;100.00;93434.84;2514092;23;20050;-83
2023/04/10 01:22:10;;;;;;;11.98;7.50;;;;;;;-1.56;100.00;93421.63;2520485;23;20058;-85
2023/04/10 01:23:41;;;;;;;11.93;8.10;;;;;;;-1.56;100.00;93430.25;2522354;23;20006;-83
2023/04/10 01:24:45;;;;;;;11.40;7.53;;;;;;;-1.58;100.00;93427.19;2525056;23;20030;-84
2023/04/10 01:26:00;;;;;;;12.10;7.88;;;;;;;-1.62;100.00;93428.97;2508882;23;20467;-85
2023/04/10 01:27:16;;;;;;;12.20;7.95;;;;;;;-1.59;100.00;93424.91;2513261;23;20278;-82
2023/04/10 01:28:59;;;;;;;12.23;8.10;;;;;;;-1.60;100.00;93429.38;2513287;23;20521;-83
2023/04/10 01:30:02;;;;;;;12.30;7.35;;;;;;;-1.68;100.00;93429.50;2536115;23;20009;-84
2023/04/10 01:31:07;;;;;;;10.98;7.32;;;;;;;-1.66;100.00;93427.31;2520674;23;20041;-83
2023/04/10 01:32:15;;;;;;;11.32;7.80;;;;;;;-1.52;100.00;93430.34;2497654;23;20561;-83
2023/04/10 01:33:19;;;;;;;11.98;8.00;;;;;;;-1.54;100.00;93425.44;2510665;23;20009;-83
2023/04/10 01:34:39;;;;;;;11.60;7.60;;;;;;;-1.56;100.00;93425.00;2532727;23;20429;-83
2023/04/10 01:35:42;;;;;;;11.77;7.75;;;;;;;-1.57;100.00;93430.59;2543577;23;20014;-86
2023/04/10 01:36:52;;;;;;;11.77;7.63;;;;;;;-1.64;100.00;93425.88;2520574;23;20012;-81
2023/04/10 01:37:55;;;;;;;11.40;7.70;;;;;;;-1.55;100.00;93426.53;2523431;23;20329;-85
2023/04/10 01:38:57;;;;;;;13.32;8.10;;;;;;;-1.64;100.00;93431.13;2531970;23;20010;-84
2023/04/10 01:40:02;;;;;;;13.63;8.20;;;;;;;-1.69;100.00;93427.97;2519646;23;20014;-85
2023/04/10 01:41:05;;;;;;;11.50;7.78;;;;;;;-1.77;100.00;93425.16;2520579;23;19999;-84
2023/04/10 01:42:07;;;;;;;10.52;7.65;;;;;;;-1.64;100.00;93428.50;2521626;23;20006;-84
2023/04/10 01:43:10;;;;;;;10.55;7.55;;;;;;;-1.67;100.00;93423.91;2529090;23;20364;-86
2023/04/10 01:44:14;;;;;;;14.80;8.02;;;;;;;-1.77;100.00;93425.16;2533256;23;20006;-82
2023/04/10 01:45:27;;;;;;;14.50;8.38;;;;;;;-1.75;100.00;93422.22;2521205;23;20009;-84
2023/04/10 01:46:32;;;;;;;11.40;7.80;;;;;;;-1.86;100.00;93426.34;2521729;23;20453;-83
2023/04/10 01:47:35;;;;;;;10.90;7.57;;;;;;;-1.84;100.00;93422.34;2509135;23;20007;-85
2023/04/10 01:48:39;;;;;;;11.23;7.47;;;;;;;-1.86;100.00;93423.75;2528748;23;20010;-83
2023/04/10 01:49:45;;;;;;;9.88;6.65;;;;;;;-1.82;100.00;93414.13;2532754;23;20472;-84
2023/04/10 01:51:21;;;;;;;10.15;7.32;;;;;;;-1.83;100.00;93412.63;2532017;23;20029;-83
2023/04/10 01:52:24;;;;;;;10.88;6.72;;;;;;;-1.83;100.00;93413.38;2546164;23;20009;-84
2023/04/10 01:53:25;;;;;;;11.15;7.45;;;;;;;-1.91;100.00;93410.88;2531777;23;20013;-84
2023/04/10 01:54:32;;;;;;;11.30;7.72;;;;;;;-1.84;100.00;93411.09;2519319;23;20006;-83
2023/04/10 01:55:39;;;;;;;9.77;7.00;;;;;;;-1.92;100.00;93411.97;2511757;23;20010;-84
2023/04/10 01:56:45;;;;;;;10.13;6.80;;;;;;;-1.85;100.00;93406.91;2535387;23;20399;-84
2023/04/10 01:57:48;;;;;;;10.95;7.65;;;;;;;-1.96;100.00;93400.63;2532486;23;20009;-82
2023/04/10 01:58:52;;;;;;;10.98;6.82;;;;;;;-1.88;100.00;93408.38;2508755;23;20521;-83
2023/04/10 02:00:01;;;;;;;11.63;7.30;;;;;;;-1.89;100.00;93403.44;2498439;23;20003;-84
2023/04/10 02:01:09;;;;;;;10.52;7.13;;;;;;;-1.83;100.00;93405.50;2512071;23;20013;-84
2023/04/10 02:02:19;;;;;;;10.45;7.28;;;;;;;-1.85;100.00;93404.31;2526366;23;20098;-84
2023/04/10 02:03:25;;;;;;;10.50;7.47;;;;;;;-1.90;100.00;93405.28;2525062;23;20010;-83
2023/04/10 02:04:32;;;;;;;11.45;7.15;;;;;;;-1.78;100.00;93396.66;2521686;23;20010;-83
2023/04/10 02:06:17;;;;;;;11.57;7.40;;;;;;;-1.89;100.00;93409.47;2521022;23;20020;-84
2023/04/10 02:08:15;;;;;;;10.90;6.95;;;;;;;-1.78;100.00;93401.91;2529584;23;20021;-83
2023/04/10 02:09:30;;;;;;;9.25;6.35;;;;;;;-1.83;100.00;93407.38;2508166;23;20497;-82
2023/04/10 02:11:20;;;;;;;9.55;6.32;;;;;;;-1.78;100.00;93407.13;2500062;23;20017;-82
2023/04/10 02:12:34;;;;;;;8.85;6.07;;;;;;;-1.81;100.00;93410.41;2486097;23;20024;-83
2023/04/10 02:13:44;;;;;;;11.65;6.57;;;;;;;-1.65;100.00;93400.78;2505535;23;20052;-85
2023/04/10 02:14:51;;;;;;;9.18;6.70;;;;;;;-1.76;100.00;93404.94;2522932;23;20017;-85
2023/04/10 02:16:00;;;;;;;9.57;6.80;;;;;;;-1.81;100.00;93413.03;2523004;23;20069;-85
2023/04/10 02:17:10;;;;;;;9.98;6.50;;;;;;;-1.74;100.00;93409.88;2533316;23;20002;-83
2023/04/10 02:20:22;;;;;;;;;;;;;;;-1.87;100.00;93411.75;2131185;27;20187;-81
2023/04/10 02:21:25;;;;;;;10.15;6.50;;;;;;;-1.89;100.00;93413.91;2121238;28;20495;-81
2023/04/10 02:22:32;;;;;;;9.40;6.40;;;;;;;-1.92;100.00;93415.34;2105055;28;20461;-81
2023/04/10 02:23:36;;;;;;;9.75;6.75;;;;;;;-1.91;100.00;93413.50;2105341;28;20028;-82
2023/04/10 02:24:44;;;;;;;10.85;7.22;;;;;;;-2.01;100.00;93416.56;2104773;28;20540;-81
2023/04/10 02:25:52;;;;;;;9.02;6.85;;;;;;;-2.03;100.00;93414.25;2113725;28;20069;-81
2023/04/10 02:26:57;;;;;;;8.35;6.38;;;;;;;-2.03;100.00;93419.50;2109846;28;20538;-81
2023/04/10 02:28:09;;;;;;;9.27;6.57;;;;;;;-2.05;100.00;93417.22;2112606;28;20491;-81
2023/04/10 02:29:16;;;;;;;10.35;6.97;;;;;;;-2.07;100.00;93416.75;2105576;28;20020;-83
2023/04/10 02:30:23;;;;;;;10.13;7.40;;;;;;;-2.01;100.00;93419.94;2108883;28;20016;-82
2023/04/10 02:31:50;;;;;;;10.40;6.95;;;;;;;-1.93;100.00;93410.41;2114374;27;20039;-81
2023/04/10 02:32:54;;;;;;;9.20;6.78;;;;;;;-1.87;100.00;93414.38;2124937;27;20033;-81
2023/04/10 02:33:59;;;;;;;9.80;6.55;;;;;;;-2.01;100.00;93416.56;2121596;27;20032;-82
2023/04/10 02:35:01;;;;;;;9.10;6.45;;;;;;;-1.91;100.00;93418.72;2113107;28;20058;-81
2023/04/10 02:36:12;;;;;;;10.13;6.63;;;;;;;-1.98;100.00;93427.13;2121450;27;20038;-82
2023/04/10 02:37:20;;;;;;;10.75;6.78;;;;;;;-1.97;100.00;93425.28;2113903;28;20081;-81
2023/04/10 02:38:26;;;;;;;10.90;6.65;;;;;;;-1.99;100.00;93427.47;2106007;28;20680;-81
2023/04/10 02:39:32;;;;;;;9.10;6.85;;;;;;;-1.95;100.00;93428.34;2105693;28;20493;-84
2023/04/10 02:40:39;;;;;;;10.07;6.38;;;;;;;-1.98;100.00;93426.38;2105628;28;20473;-81
2023/04/10 02:41:42;;;;;;;10.93;6.88;;;;;;;-1.99;100.00;93427.47;2105876;28;20036;-81
2023/04/10 02:42:46;;;;;;;10.73;7.10;;;;;;;-2.05;100.00;93426.94;2113336;27;20031;-81
2023/04/10 02:43:52;;;;;;;9.20;6.60;;;;;;;-1.98;100.00;93421.13;2113537;28;20028;-82
2023/04/10 02:44:58;;;;;;;11.38;7.25;;;;;;;-1.99;100.00;93422.97;2096702;28;20021;-81
2023/04/10 02:46:03;;;;;;;8.00;6.45;;;;;;;-1.99;100.00;93424.84;2097057;28;20464;-81
2023/04/10 02:47:11;;;;;;;9.77;7.00;;;;;;;-1.79;100.00;93419.47;2105058;28;20031;-81
2023/04/10 02:48:18;;;;;;;9.27;6.90;;;;;;;-1.92;100.00;93419.81;2119002;28;20524;-81
2023/04/10 02:49:26;;;;;;;10.80;6.60;;;;;;;-1.95;100.00;93416.00;2105879;28;20118;-81
2023/04/10 02:50:31;;;;;;;10.15;7.03;;;;;;;-1.88;100.00;93415.47;2104483;28;20667;-82
2023/04/10 02:51:42;;;;;;;10.30;6.90;;;;;;;-1.97;100.00;93415.56;2104907;28;20035;-80
2023/04/10 02:52:44;;;;;;;9.65;6.47;;;;;;;-1.88;100.00;93416.22;2114131;28;20034;-81
2023/04/10 02:53:46;;;;;;;8.55;6.28;;;;;;;-1.99;100.00;93412.50;2104233;28;20558;-81
2023/04/10 02:54:51;;;;;;;8.43;6.30;;;;;;;-2.03;100.00;93409.78;2096199;28;20031;-82
2023/04/10 02:55:57;;;;;;;10.57;6.65;;;;;;;-2.04;100.00;93412.75;2105119;28;20024;-81
2023/04/10 02:57:02;;;;;;;9.77;6.78;;;;;;;-2.04;100.00;93410.13;2104524;28;20032;-80
2023/04/10 02:58:07;;;;;;;10.68;6.88;;;;;;;-2.05;100.00;93401.50;2096605;28;20537;-82
2023/04/10 02:59:16;;;;;;;10.45;6.72;;;;;;;-2.05;100.00;93400.75;2105230;28;20442;-81
2023/04/10 03:00:25;;;;;;;8.80;6.18;;;;;;;-2.09;100.00;93400.63;2105345;28;20094;-81
2023/04/10 03:01:33;;;;;;;9.65;7.00;;;;;;;-2.05;100.00;93391.03;2105176;28;20110;-81
2023/04/10 03:02:42;;;;;;;9.70;6.45;;;;;;;-2.06;100.00;93399.22;2104921;28;20057;-83
2023/04/10 03:03:46;;;;;;;9.82;7.13;;;;;;;-1.97;100.00;93389.38;2097464;28;20377;-83
2023/04/10 03:04:49;;;;;;;10.57;6.68;;;;;;;-2.04;100.00;93397.03;2096518;28;20489;-84
2023/04/10 03:05:57;;;;;;;9.45;7.05;;;;;;;-2.10;100.00;93396.50;2104556;28;20032;-83
2023/04/10 03:07:05;;;;;;;8.27;5.78;;;;;;;-2.09;100.00;93395.41;2104957;28;20704;-83
2023/04/10 03:08:13;;;;;;;9.40;6.25;;;;;;;-2.14;100.00;93392.25;2103657;28;20093;-83
2023/04/10 03:09:17;;;;;;;9.50;6.72;;;;;;;-2.09;100.00;93389.41;2105719;28;20519;-83
2023/04/10 03:10:24;;;;;;;10.50;6.78;;;;;;;-2.11;100.00;93387.13;2105198;28;20051;-82
2023/04/10 03:11:26;;;;;;;11.27;6.88;;;;;;;-2.12;100.00;93390.81;2089051;28;20180;-82
2023/04/10 03:12:36;;;;;;;10.10;6.88;;;;;;;-2.15;100.00;93383.63;2087827;28;20207;-81
2023/04/10 03:13:40;;;;;;;8.38;6.50;;;;;;;-2.09;100.00;93384.16;2102083;28;20032;-81
2023/04/10 03:14:42;;;;;;;9.00;6.57;;;;;;;-2.09;100.00;93384.91;2104321;28;20036;-81
2023/04/10 03:15:47;;;;;;;9.07;6.25;;;;;;;-2.09;100.00;93374.44;2095823;28;20898;-81
2023/04/10 03:16:56;;;;;;;10.13;6.55;;;;;;;-2.15;100.00;93381.00;2104455;28;20134;-81
2023/04/10 03:18:00;;;;;;;8.85;6.65;;;;;;;-2.12;100.00;93379.56;2097604;28;20020;-81
2023/04/10 03:19:08;;;;;;;9.07;6.43;;;;;;;-2.08;100.00;93383.06;2095695;28;20562;-82
2023/04/10 03:20:16;;;;;;;10.07;6.15;;;;;;;-2.09;100.00;93379.69;2096182;28;20041;-81
2023/04/10 03:21:19;;;;;;;9.48;6.35;;;;;;;-2.08;100.00;93375.97;2089216;28;20602;-81
2023/04/10 03:22:26;;;;;;;9.25;6.28;;;;;;;-2.07;100.00;93381.97;2087603;28;20045;-80
2023/04/10 03:23:34;;;;;;;9.05;6.35;;;;;;;-2.06;100.00;93380.88;2096277;28;20021;-81
2023/04/10 03:24:41;;;;;;;9.80;6.95;;;;;;;-2.06;100.00;93383.50;2089063;28;20037;-82
2023/04/10 03:25:43;;;;;;;9.85;6.72;;;;;;;-2.21;100.00;93378.94;2096674;28;20111;-82
2023/04/10 03:26:50;;;;;;;9.63;6.20;;;;;;;-2.22;100.00;93372.94;2095517;28;20029;-82
2023/04/10 03:27:56;;;;;;;8.95;6.80;;;;;;;-2.18;100.00;93368.56;2097441;28;20115;-82
2023/04/10 03:29:05;;;;;;;9.98;6.45;;;;;;;-2.11;100.00;93374.03;2095899;28;20020;-80
2023/04/10 03:30:08;;;;;;;10.05;6.53;;;;;;;-2.10;100.00;93370.31;2089386;28;20485;-81
2023/04/10 03:31:23;;;;;;;9.90;7.00;;;;;;;-2.14;100.00;93369.44;2098487;28;20085;-81
2023/04/10 03:32:30;;;;;;;10.15;6.35;;;;;;;-2.24;100.00;93375.09;2096861;28;20033;-81
2023/04/10 03:33:35;;;;;;;10.27;6.78;;;;;;;-2.18;100.00;93373.03;2097953;28;20028;-81
2023/04/10 03:34:41;;;;;;;9.25;6.80;;;;;;;-2.16;100.00;93374.22;2082768;28;20391;-82
2023/04/10 03:35:46;;;;;;;9.93;6.65;;;;;;;-2.15;100.00;93372.38;2083194;28;20036;-81
2023/04/10 03:36:55;;;;;;;11.43;7.43;;;;;;;-2.22;100.00;93367.69;2098155;28;20052;-80
2023/04/10 03:38:01;;;;;;;10.27;6.15;;;;;;;-2.18;100.00;93371.19;2091980;28;20028;-81
2023/04/10 03:39:08;;;;;;;8.13;6.32;;;;;;;-2.19;100.00;93374.13;2098804;28;20112;-82
2023/04/10 03:40:16;;;;;;;8.32;6.47;;;;;;;-2.26;100.00;93368.69;2097948;28;20024;-81
2023/04/10 03:41:23;;;;;;;10.45;6.47;;;;;;;-2.17;100.00;93366.72;2083492;28;20128;-82
2023/04/10 03:42:27;;;;;;;11.38;6.85;;;;;;;-2.13;100.00;93370.97;2083378;28;20033;-81
2023/04/10 03:43:30;;;;;;;11.00;6.35;;;;;;;-2.15;100.00;93367.91;2090104;28;20047;-81
2023/04/10 03:44:38;;;;;;;8.70;6.72;;;;;;;-2.18;100.00;93360.72;2090089;28;20453;-81
2023/04/10 03:45:43;;;;;;;8.52;6.20;;;;;;;-2.14;100.00;93366.06;2083751;28;20029;-81
2023/04/10 03:46:58;;;;;;;9.43;6.32;;;;;;;-2.19;100.00;93367.03;2093164;28;20108;-81
2023/04/10 03:48:02;;;;;;;9.48;5.97;;;;;;;-2.17;100.00;93364.84;2099163;28;20112;-81
2023/04/10 03:49:13;;;;;;;9.05;6.65;;;;;;;-2.18;100.00;93360.72;2090156;28;20017;-81
2023/04/10 03:50:17;;;;;;;9.52;6.43;;;;;;;-2.19;100.00;93355.81;2099254;28;20017;-80
2023/04/10 03:51:18;;;;;;;8.88;5.68;;;;;;;-2.23;100.00;93362.78;2089981;28;20040;-80
2023/04/10 03:52:24;;;;;;;9.30;6.53;;;;;;;-2.33;100.00;93363.97;2081780;28;20029;-81
2023/04/10 03:53:34;;;;;;;10.35;6.70;;;;;;;-2.31;100.00;93362.56;2091029;28;20425;-81
2023/04/10 03:54:38;;;;;;;11.18;6.75;;;;;;;-2.29;100.00;93365.59;2103927;27;20086;-81
2023/04/10 03:55:44;;;;;;;9.13;6.63;;;;;;;-2.24;100.00;93364.63;2103615;28;20087;-81
2023/04/10 03:56:50;;;;;;;9.15;6.38;;;;;;;-2.26;100.00;93361.59;2106706;28;20020;-81
2023/04/10 03:57:57;;;;;;;7.70;5.75;;;;;;;-2.26;100.00;93361.59;2098477;28;20020;-80
2023/04/10 03:59:01;;;;;;;8.93;6.00;;;;;;;-2.25;100.00;93357.09;2099663;28;20437;-80
2023/04/10 04:00:04;;;;;;;9.13;6.35;;;;;;;-2.25;100.00;93357.88;2098357;28;20031;-82
2023/04/10 04:01:06;;;;;;;9.07;6.47;;;;;;;-2.26;100.00;93353.72;2090231;28;20021;-81
2023/04/10 04:02:15;;;;;;;10.90;6.72;;;;;;;-2.27;100.00;93354.81;2090013;28;20016;-81
2023/04/10 04:03:19;;;;;;;11.40;5.93;;;;;;;-2.26;100.00;93351.13;2099941;28;20030;-81
2023/04/10 04:04:20;;;;;;;10.45;6.75;;;;;;;-2.24;100.00;93346.28;2106149;28;20606;-82
2023/04/10 04:05:29;;;;;;;9.63;6.88;;;;;;;-2.29;100.00;93346.53;2098006;28;20050;-82
2023/04/10 04:06:32;;;;;;;10.25;6.95;;;;;;;-2.31;100.00;93348.72;2100112;28;20021;-81
2023/04/10 04:07:33;;;;;;;9.10;7.28;;;;;;;-2.28;100.00;93346.22;2106292;28;20055;-83
2023/04/10 04:08:35;;;;;;;9.25;6.60;;;;;;;-2.27;100.00;93346.97;2097880;28;20051;-85
2023/04/10 04:09:38;;;;;;;9.32;6.97;;;;;;;-2.25;100.00;93347.41;2097791;28;20028;-83
2023/04/10 04:10:44;;;;;;;10.70;6.63;;;;;;;-2.21;100.00;93345.66;2105969;28;20020;-83
2023/04/10 04:11:51;;;;;;;11.27;6.90;;;;;;;-2.22;100.00;93351.97;2091032;28;20112;-81
2023/04/10 04:12:53;;;;;;;8.30;6.32;;;;;;;-2.21;100.00;93350.13;2083232;28;20025;-81
2023/04/10 04:13:54;;;;;;;9.18;6.45;;;;;;;-2.25;100.00;93344.03;2089430;28;20017;-81
2023/04/10 04:14:55;;;;;;;9.98;6.25;;;;;;;-2.29;100.00;93346.53;2089476;28;20512;-81
2023/04/10 04:15:56;;;;;;;9.82;6.43;;;;;;;-2.24;100.00;93348.91;2089567;28;20020;-80
2023/04/10 04:16:58;;;;;;;10.95;7.05;;;;;;;-2.20;100.00;93346.41;2089782;28;20496;-82
2023/04/10 04:17:59;;;;;;;11.55;6.70;;;;;;;-2.20;100.00;93346.41;2111709;28;20117;-83
2023/04/10 04:19:01;;;;;;;9.75;6.60;;;;;;;-2.25;100.00;93350.00;2106484;28;20028;-82
2023/04/10 04:20:03;;;;;;;9.35;6.57;;;;;;;-2.12;100.00;93351.53;2106092;28;20040;-81
2023/04/10 04:21:06;;;;;;;9.65;6.95;;;;;;;-2.20;100.00;93349.03;2106262;27;20032;-82
2023/04/10 04:22:08;;;;;;;10.60;6.97;;;;;;;-2.19;100.00;93343.47;2106424;28;20024;-81
2023/04/10 04:23:09;;;;;;;7.93;5.97;;;;;;;-2.16;100.00;93347.28;2106111;28;20024;-80
2023/04/10 04:24:10;;;;;;;9.68;6.30;;;;;;;-2.24;100.00;93341.06;2097722;28;20021;-80
2023/04/10 04:25:11;;;;;;;9.93;7.35;;;;;;;-2.23;100.00;93347.09;2106083;28;20026;-80
2023/04/10 04:26:13;;;;;;;11.25;6.57;;;;;;;-2.31;100.00;93351.34;2106412;28;20107;-81
2023/04/10 04:27:15;;;;;;;7.95;6.05;;;;;;;-2.31;100.00;93348.72;2106171;28;20032;-80
2023/04/10 04:28:16;;;;;;;10.32;6.78;;;;;;;-2.30;100.00;93351.00;2114298;28;20068;-81
2023/04/10 04:29:17;;;;;;;9.50;6.57;;;;;;;-2.33;100.00;93350.88;2106321;28;20113;-81
2023/04/10 04:30:18;;;;;;;10.32;6.53;;;;;;;-2.37;100.00;93357.88;2114470;28;20031;-82
2023/04/10 04:31:19;;;;;;;11.48;6.72;;;;;;;-2.32;100.00;93357.69;2089497;28;20033;-81
2023/04/10 04:32:20;;;;;;;8.65;6.28;;;;;;;-2.25;100.00;93354.50;2089285;28;20025;-83
2023/04/10 04:33:21;;;;;;;11.13;6.90;;;;;;;-2.36;100.00;93354.19;2089231;28;20116;-82
2023/04/10 04:34:22;;;;;;;11.52;6.90;;;;;;;-2.32;100.00;93353.19;2081420;28;20060;-84
2023/04/10 04:35:24;;;;;;;9.85;7.07;;;;;;;-2.36;100.00;93362.78;2089528;28;20021;-83
2023/04/10 04:36:27;;;;;;;9.35;6.45;;;;;;;-2.32;100.00;93357.69;2097882;28;20020;-82
2023/04/10 04:37:28;;;;;;;11.65;6.75;;;;;;;-2.32;100.00;93360.28;2091046;28;20028;-83
2023/04/10 04:38:30;;;;;;;9.85;7.00;;;;;;;-2.33;100.00;93359.53;2097500;28;20028;-83
2023/04/10 04:39:31;;;;;;;9.88;6.63;;;;;;;-2.39;100.00;93360.06;2106128;28;20023;-82
2023/04/10 04:40:32;;;;;;;9.93;7.20;;;;;;;-2.29;100.00;93364.84;2110101;28;20024;-83
2023/04/10 04:41:33;;;;;;;9.20;6.55;;;;;;;-2.32;100.00;93363.66;2108191;28;20028;-83
2023/04/10 04:42:34;;;;;;;10.10;6.10;;;;;;;-2.36;100.00;93365.41;2089232;28;20021;-81
2023/04/10 04:43:35;;;;;;;12.02;6.35;;;;;;;-2.28;100.00;93363.78;2096899;28;20888;-81
2023/04/10 04:44:36;;;;;;;9.38;6.65;;;;;;;-2.32;100.00;93368.16;2093814;28;20024;-83
2023/04/10 04:45:37;;;;;;;8.25;6.25;;;;;;;-2.38;100.00;93364.19;2097583;28;20025;-83
2023/04/10 04:46:38;;;;;;;10.23;7.00;;;;;;;-2.36;100.00;93369.88;2097692;28;20504;-82
2023/04/10 04:47:39;;;;;;;9.57;6.28;;;;;;;-2.37;100.00;93366.50;2106153;28;20123;-83
2023/04/10 04:48:41;;;;;;;10.07;7.15;;;;;;;-2.36;100.00;93369.88;2105909;28;20024;-83
2023/04/10 04:49:42;;;;;;;9.38;6.82;;;;;;;-2.35;100.00;93368.78;2097662;28;20052;-81
2023/04/10 04:50:43;;;;;;;9.73;7.03;;;;;;;-2.37;100.00;93369.13;2097482;28;20020;-80
2023/04/10 04:51:44;;;;;;;9.80;6.53;;;;;;;-2.33;100.00;93370.00;2106005;28;20016;-81
2023/04/10 04:52:45;;;;;;;8.68;6.53;;;;;;;-2.32;100.00;93371.53;2105936;28;20404;-80
2023/04/10 04:53:46;;;;;;;10.88;7.28;;;;;;;-2.29;100.00;93370.09;2097506;28;20021;-81
2023/04/10 04:54:48;;;;;;;10.65;7.13;;;;;;;-2.31;100.00;93364.44;2097516;28;20021;-80
2023/04/10 04:55:49;;;;;;;10.13;6.68;;;;;;;-2.33;100.00;93374.44;2106227;28;20020;-82
2023/04/10 04:56:50;;;;;;;11.00;7.53;;;;;;;-2.29;100.00;93372.69;2114273;28;20050;-80
2023/04/10 04:57:53;;;;;;;11.32;7.43;;;;;;;-2.32;100.00;93374.13;2105767;28;20047;-82
2023/04/10 04:58:54;;;;;;;11.10;7.13;;;;;;;-2.34;100.00;93370.31;2105480;28;20026;-81
2023/04/10 04:59:55;;;;;;;9.38;6.78;;;;;;;-2.37;100.00;93370.97;2097541;28;20025;-80
2023/04/10 05:00:56;;;;;;;11.30;7.20;;;;;;;-2.42;100.00;93366.72;2089125;28;20539;-81
2023/04/10 05:01:57;;;;;;;10.18;6.72;;;;;;;-2.37;100.00;93374.38;2089543;28;20699;-81
2023/04/10 05:02:58;;;;;;;9.35;6.70;;;;;;;-2.35;100.00;93366.19;2097483;28;20028;-81
2023/04/10 05:04:01;;;;;;;9.63;6.70;;;;;;;-2.32;100.00;93360.28;2097612;28;20032;-80
2023/04/10 05:05:02;;;;;;;8.65;6.30;;;;;;;-2.22;100.00;93364.31;2081117;28;20405;-80